createdAt,value
2019-03-25T00:01:06.343Z,95139.36
2019-03-25T00:03:32.980Z,95141.98
2019-03-25T00:05:59.731Z,95131.78
2019-03-25T00:08:26.383Z,95131.27
2019-03-25T00:10:53.038Z,95133.41
2019-03-25T00:13:19.681Z,95130.41
2019-03-25T00:15:46.329Z,95119.08
2019-03-25T00:18:12.977Z,95121.33
2019-03-25T00:20:40.675Z,95112.66
2019-03-25T00:23:06.270Z,95113.67
2019-03-25T00:25:32.962Z,95112.53
2019-03-25T00:27:59.615Z,95106.50
2019-03-25T00:30:26.257Z,95111.53
2019-03-25T00:32:52.933Z,95114.70
2019-03-25T00:35:19.585Z,95109.16
2019-03-25T00:37:46.224Z,95106.91
2019-03-25T00:40:12.880Z,95108.39
2019-03-25T00:42:39.645Z,95105.75
2019-03-25T00:45:06.296Z,95104.00
2019-03-25T00:47:32.936Z,95099.49
2019-03-25T00:49:59.574Z,95104.50
2019-03-25T00:52:27.678Z,95097.22
2019-03-25T00:54:52.906Z,95094.21
2019-03-25T00:57:19.551Z,95100.84
2019-03-25T00:59:48.824Z,95092.93
2019-03-25T01:02:12.836Z,95085.64
2019-03-25T01:04:39.513Z,95084.66
2019-03-25T01:07:06.164Z,95082.89
2019-03-25T01:09:32.820Z,95081.12
2019-03-25T01:11:59.463Z,95078.23
2019-03-25T01:14:26.101Z,95077.48
2019-03-25T01:16:52.832Z,95079.87
2019-03-25T01:19:19.472Z,95077.48
2019-03-25T01:21:46.107Z,95082.90
2019-03-25T01:24:12.761Z,95079.87
2019-03-25T01:26:39.412Z,95073.58
2019-03-25T01:29:06.056Z,95077.59
2019-03-25T01:31:32.696Z,95075.22
2019-03-25T01:33:59.348Z,95077.86
2019-03-25T01:36:25.988Z,95076.73
2019-03-25T01:38:52.644Z,95074.08
2019-03-25T01:41:19.298Z,95072.83
2019-03-25T01:43:45.948Z,95081.37
2019-03-25T01:46:12.590Z,95078.60
2019-03-25T01:48:39.255Z,95075.84
2019-03-25T01:51:05.908Z,95071.70
2019-03-25T01:53:32.598Z,95070.70
2019-03-25T01:55:59.243Z,95075.47
2019-03-25T01:58:25.880Z,95069.94
2019-03-25T02:00:54.086Z,95072.46
2019-03-25T02:03:19.187Z,95064.91
2019-03-25T02:05:45.822Z,95065.92
2019-03-25T02:08:12.465Z,95062.28
2019-03-25T02:10:39.172Z,95061.39
2019-03-25T02:13:05.771Z,95058.25
2019-03-25T02:15:32.457Z,95046.95
2019-03-25T02:17:59.096Z,95045.19
2019-03-25T02:20:26.962Z,95041.05
2019-03-25T02:22:52.748Z,95042.91
2019-03-25T02:25:25.330Z,95034.77
2019-03-25T02:27:45.822Z,95036.64
2019-03-25T02:30:12.470Z,95033.77
2019-03-25T02:32:39.260Z,95026.70
2019-03-25T02:35:05.910Z,95023.19
2019-03-25T02:37:32.601Z,95019.70
2019-03-25T02:39:59.242Z,95015.16
2019-03-25T02:42:25.894Z,95019.42
2019-03-25T02:44:52.534Z,95018.06
2019-03-25T02:47:19.177Z,95008.50
2019-03-25T02:49:45.835Z,95014.41
2019-03-25T02:52:12.487Z,95008.51
2019-03-25T02:54:39.132Z,95009.37
2019-03-25T02:57:05.784Z,95005.10
2019-03-25T02:59:32.424Z,95008.52
2019-03-25T03:01:59.071Z,95008.73
2019-03-25T03:04:25.721Z,95003.56
2019-03-25T03:06:52.359Z,94994.56
2019-03-25T03:09:19.013Z,94998.30
2019-03-25T03:11:45.660Z,94989.26
2019-03-25T03:14:15.150Z,94994.67
2019-03-25T03:16:38.944Z,94992.52
2019-03-25T03:19:05.629Z,94996.42
2019-03-25T03:21:32.249Z,94998.94
2019-03-25T03:23:58.885Z,94997.67
2019-03-25T03:26:25.523Z,95001.92
2019-03-25T03:28:52.215Z,95002.94
2019-03-25T03:31:18.857Z,95001.92
2019-03-25T03:33:45.512Z,95000.68
2019-03-25T03:36:12.194Z,94999.67
2019-03-25T03:38:38.840Z,95001.69
2019-03-25T03:41:05.502Z,95002.55
2019-03-25T03:43:32.197Z,94995.92
2019-03-25T03:45:58.838Z,94999.80
2019-03-25T03:48:25.469Z,95006.33
2019-03-25T03:50:52.130Z,94996.16
2019-03-25T03:53:18.785Z,95001.28
2019-03-25T03:55:45.462Z,94998.53
2019-03-25T03:58:12.115Z,94993.89
2019-03-25T04:00:38.754Z,94995.39
2019-03-25T04:03:05.405Z,94994.39
2019-03-25T04:05:32.046Z,95000.67
2019-03-25T04:07:58.703Z,95001.30
2019-03-25T04:10:25.379Z,94997.38
2019-03-25T04:12:51.984Z,94993.66
2019-03-25T04:15:18.638Z,94989.51
2019-03-25T04:17:45.336Z,94984.16
2019-03-25T04:20:11.967Z,94980.91
2019-03-25T04:22:38.685Z,94978.02
2019-03-25T04:25:05.278Z,94987.21
2019-03-25T04:27:31.913Z,94986.28
2019-03-25T04:29:58.577Z,94987.19
2019-03-25T04:32:25.222Z,94982.59
2019-03-25T04:34:51.862Z,94984.63
2019-03-25T04:37:18.512Z,94983.98
2019-03-25T04:39:45.158Z,94980.99
2019-03-25T04:42:11.796Z,94981.55
2019-03-25T04:44:38.478Z,94978.40
2019-03-25T04:47:05.117Z,94974.77
2019-03-25T04:49:31.809Z,94967.16
2019-03-25T04:51:59.516Z,94976.68
2019-03-25T04:54:26.194Z,94968.79
2019-03-25T04:56:52.848Z,94963.27
2019-03-25T04:59:19.527Z,94971.92
2019-03-25T05:01:46.165Z,94982.75
2019-03-25T05:04:12.843Z,94973.08
2019-03-25T05:06:39.491Z,94973.58
2019-03-25T05:09:06.191Z,94970.45
2019-03-25T05:11:32.852Z,94966.17
2019-03-25T05:13:59.488Z,94967.41
2019-03-25T05:16:26.127Z,94972.02
2019-03-25T05:18:52.772Z,94966.09
2019-03-25T05:21:19.427Z,94969.37
2019-03-25T05:23:46.089Z,94962.42
2019-03-25T05:26:12.722Z,94969.19
2019-03-25T05:28:39.384Z,94959.98
2019-03-25T05:31:06.026Z,94959.48
2019-03-25T05:33:32.659Z,94957.45
2019-03-25T05:35:59.352Z,94956.58
2019-03-25T05:38:25.990Z,94964.51
2019-03-25T05:40:52.643Z,94953.05
2019-03-25T05:43:21.145Z,94966.59
2019-03-25T05:45:45.930Z,94959.89
2019-03-25T05:48:12.616Z,94950.80
2019-03-25T05:50:39.258Z,94949.47
2019-03-25T05:53:05.897Z,94948.20
2019-03-25T05:55:32.554Z,94945.42
2019-03-25T05:57:59.196Z,94942.84
2019-03-25T06:00:26.007Z,94947.03
2019-03-25T06:02:52.726Z,94936.91
2019-03-25T06:05:19.519Z,94942.90
2019-03-25T06:07:46.166Z,94942.97
2019-03-25T06:10:12.839Z,94944.91
2019-03-25T06:12:39.582Z,94934.69
2019-03-25T06:15:06.216Z,94945.38
2019-03-25T06:17:32.879Z,94937.78
2019-03-25T06:19:59.517Z,94930.57
2019-03-25T06:22:26.164Z,94937.28
2019-03-25T06:24:52.800Z,94928.96
2019-03-25T06:27:19.506Z,94933.94
2019-03-25T06:29:46.148Z,94926.41
2019-03-25T06:32:12.794Z,94929.50
2019-03-25T06:34:39.449Z,94918.69
2019-03-25T06:37:06.097Z,94916.22
2019-03-25T06:39:32.735Z,94918.74
2019-03-25T06:41:59.383Z,94911.57
2019-03-25T06:44:26.061Z,94917.91
2019-03-25T06:46:52.740Z,94903.55
2019-03-25T06:49:19.487Z,94910.64
2019-03-25T06:51:46.165Z,94903.70
2019-03-25T06:54:13.902Z,94900.56
2019-03-25T06:56:40.590Z,94903.59
2019-03-25T06:59:07.246Z,94906.99
2019-03-25T07:01:33.927Z,94906.23
2019-03-25T07:04:00.588Z,94908.04
2019-03-25T07:06:27.276Z,94894.39
2019-03-25T07:08:53.923Z,94902.16
2019-03-25T07:11:20.559Z,94904.22
2019-03-25T07:13:47.265Z,94897.28
2019-03-25T07:16:13.926Z,94905.73
2019-03-25T07:18:40.567Z,94898.54
2019-03-25T07:21:07.226Z,94903.30
2019-03-25T07:23:34.006Z,94901.38
2019-03-25T07:26:00.692Z,94901.13
2019-03-25T07:28:27.351Z,94898.55
2019-03-25T07:30:54.005Z,94894.30
2019-03-25T07:33:20.768Z,94895.51
2019-03-25T07:35:47.445Z,94900.44
2019-03-25T07:38:14.250Z,94898.20
2019-03-25T07:40:40.917Z,94895.51
2019-03-25T07:43:07.734Z,94889.53
2019-03-25T07:45:38.117Z,94884.47
2019-03-25T07:48:04.787Z,94878.90
2019-03-25T07:50:31.445Z,94878.94
2019-03-25T07:52:58.246Z,94880.06
2019-03-25T07:55:24.885Z,94881.22
2019-03-25T07:57:51.588Z,94877.49
2019-03-25T08:00:18.730Z,94868.09
2019-03-25T08:02:45.447Z,94869.48
2019-03-25T08:05:12.191Z,94855.86
2019-03-25T08:07:38.882Z,94855.50
2019-03-25T08:10:05.556Z,94855.03
2019-03-25T08:12:32.215Z,94843.13
2019-03-25T08:14:58.861Z,94846.72
2019-03-25T08:17:25.497Z,94842.17
2019-03-25T08:19:52.223Z,94838.12
2019-03-25T08:22:18.925Z,94834.59
2019-03-25T08:24:45.561Z,94829.22
2019-03-25T08:27:12.212Z,94824.06
2019-03-25T08:29:38.944Z,94814.95
2019-03-25T08:32:05.592Z,94816.16
2019-03-25T08:34:32.254Z,94815.47
2019-03-25T08:36:58.935Z,94813.88
2019-03-25T08:39:25.631Z,94804.24
2019-03-25T08:41:52.271Z,94802.45
2019-03-25T08:44:18.994Z,94797.84
2019-03-25T08:46:45.624Z,94791.58
2019-03-25T08:49:12.283Z,94789.56
2019-03-25T08:51:40.036Z,94779.40
2019-03-25T08:54:06.716Z,94779.98
2019-03-25T08:56:33.399Z,94773.34
2019-03-25T08:59:00.055Z,94767.82
2019-03-25T09:01:26.703Z,94768.34
2019-03-25T09:03:53.392Z,94764.98
2019-03-25T09:06:20.072Z,94748.13
2019-03-25T09:08:46.807Z,94757.11
2019-03-25T09:11:13.503Z,94749.89
2019-03-25T09:13:40.142Z,94740.86
2019-03-25T09:16:06.866Z,94743.20
2019-03-25T09:18:33.591Z,94744.71
2019-03-25T09:21:00.854Z,94738.62
2019-03-25T09:23:30.416Z,94734.23
2019-03-25T09:25:57.151Z,94735.09
2019-03-25T09:28:24.740Z,94725.63
2019-03-25T09:30:50.458Z,94721.66
2019-03-25T09:33:17.276Z,94714.20
2019-03-25T09:35:43.943Z,94709.58
2019-03-25T09:38:10.612Z,94708.45
2019-03-25T09:40:37.274Z,94708.58
2019-03-25T09:43:03.930Z,94704.41
2019-03-25T09:45:30.612Z,94689.34
2019-03-25T09:47:57.246Z,94683.76
2019-03-25T09:50:23.942Z,94675.11
2019-03-25T09:52:50.624Z,94672.59
2019-03-25T09:55:17.265Z,94672.44
2019-03-25T09:57:43.919Z,94665.83
2019-03-25T10:00:10.592Z,94662.53
2019-03-25T10:02:37.353Z,94657.05
2019-03-25T10:05:03.995Z,94650.77
2019-03-25T10:07:30.659Z,94649.38
2019-03-25T10:09:57.290Z,94641.96
2019-03-25T10:12:23.976Z,94638.88
2019-03-25T10:14:53.237Z,94633.57
2019-03-25T10:17:19.894Z,94631.09
2019-03-25T10:19:46.550Z,94615.91
2019-03-25T10:22:13.213Z,94620.80
2019-03-25T10:24:39.848Z,94611.63
2019-03-25T10:27:06.505Z,94603.14
2019-03-25T10:29:33.206Z,94595.98
2019-03-25T10:32:01.945Z,94597.12
2019-03-25T10:34:28.637Z,94590.94
2019-03-25T10:36:58.400Z,94594.49
2019-03-25T10:39:25.071Z,94589.30
2019-03-25T10:41:51.691Z,94582.92
2019-03-25T10:44:18.332Z,94579.30
2019-03-25T10:46:44.989Z,94570.78
2019-03-25T10:49:11.729Z,94563.98
2019-03-25T10:51:38.475Z,94563.80
2019-03-25T10:54:05.339Z,94564.21
2019-03-25T10:56:32.053Z,94560.19
2019-03-25T10:58:58.751Z,94550.91
2019-03-25T11:01:25.438Z,94545.53
2019-03-25T11:03:52.044Z,94546.34
2019-03-25T11:06:18.681Z,94529.70
2019-03-25T11:08:45.321Z,94526.50
2019-03-25T11:11:12.005Z,94517.93
2019-03-25T11:13:38.736Z,94509.96
2019-03-25T11:16:05.383Z,94500.82
2019-03-25T11:18:32.059Z,94497.09
2019-03-25T11:20:58.698Z,94492.75
2019-03-25T11:23:25.483Z,94490.41
2019-03-25T11:25:52.123Z,94482.59
2019-03-25T11:28:18.785Z,94475.15
2019-03-25T11:30:45.424Z,94468.81
2019-03-25T11:33:12.092Z,94464.39
2019-03-25T11:35:38.784Z,94446.86
2019-03-25T11:38:05.444Z,94444.94
2019-03-25T11:40:32.083Z,94443.08
2019-03-25T11:42:58.755Z,94433.25
2019-03-25T11:45:25.537Z,94431.11
2019-03-25T11:47:53.981Z,94428.43
2019-03-25T11:50:18.877Z,94423.63
2019-03-25T11:52:46.223Z,94413.67
2019-03-25T11:55:13.342Z,94410.41
2019-03-25T11:57:40.056Z,94402.68
2019-03-25T12:00:06.795Z,94364.60
2019-03-25T12:02:33.556Z,94393.12
2019-03-25T12:05:00.314Z,94391.62
2019-03-25T12:07:26.839Z,94386.34
2019-03-25T12:09:53.523Z,94384.75
2019-03-25T12:12:20.173Z,94388.83
2019-03-25T12:14:46.830Z,94379.78
2019-03-25T12:17:13.559Z,94369.13
2019-03-25T12:19:40.303Z,94380.70
2019-03-25T12:22:07.046Z,94366.85
2019-03-25T12:24:33.706Z,94366.20
2019-03-25T12:27:00.389Z,94367.16
2019-03-25T12:29:30.468Z,94353.24
2019-03-25T12:31:54.848Z,94355.02
2019-03-25T12:34:21.637Z,94346.17
2019-03-25T12:36:48.264Z,94336.61
2019-03-25T12:39:14.907Z,94331.13
2019-03-25T12:41:41.600Z,94334.30
2019-03-25T12:44:08.287Z,94329.92
2019-03-25T12:46:35.051Z,94326.59
2019-03-25T12:49:01.763Z,94324.01
2019-03-25T12:51:28.429Z,94318.61
2019-03-25T12:53:55.062Z,94307.00
2019-03-25T12:56:22.751Z,94304.59
2019-03-25T12:58:49.390Z,94301.82
2019-03-25T13:01:16.042Z,94304.88
2019-03-25T13:03:42.742Z,94307.58
2019-03-25T13:06:09.423Z,94305.74
2019-03-25T13:08:36.069Z,94307.41
2019-03-25T13:11:06.146Z,94297.83
2019-03-25T13:13:32.792Z,94297.45
2019-03-25T13:15:59.614Z,94296.09
2019-03-25T13:18:26.310Z,94289.58
2019-03-25T13:20:54.027Z,94288.12
2019-03-25T13:23:20.671Z,94282.98
2019-03-25T13:25:47.319Z,94291.70
2019-03-25T13:28:14.005Z,94283.87
2019-03-25T13:30:40.770Z,94286.79
2019-03-25T13:33:07.420Z,94279.22
2019-03-25T13:35:34.087Z,94275.14
2019-03-25T13:38:00.833Z,94274.19
2019-03-25T13:40:27.504Z,94274.83
2019-03-25T13:42:54.267Z,94268.61
2019-03-25T13:45:20.924Z,94265.47
2019-03-25T13:47:47.656Z,94267.50
2019-03-25T13:50:14.366Z,94263.25
2019-03-25T13:52:41.039Z,94258.77
2019-03-25T13:55:07.716Z,94253.58
2019-03-25T13:57:34.364Z,94253.48
2019-03-25T14:00:03.741Z,94246.98
2019-03-25T14:02:27.703Z,94245.59
2019-03-25T14:04:54.387Z,94232.02
2019-03-25T14:07:21.084Z,94238.89
2019-03-25T14:09:47.731Z,94239.19
2019-03-25T14:12:14.408Z,94238.81
2019-03-25T14:14:41.090Z,94234.71
2019-03-25T14:17:07.837Z,94232.50
2019-03-25T14:19:34.545Z,94230.45
2019-03-25T14:22:01.185Z,94220.42
2019-03-25T14:24:27.898Z,94222.37
2019-03-25T14:26:54.528Z,94214.28
2019-03-25T14:29:21.183Z,94219.31
2019-03-25T14:31:47.859Z,94214.45
2019-03-25T14:34:14.676Z,94214.34
2019-03-25T14:36:41.163Z,94215.03
2019-03-25T14:39:07.817Z,94211.93
2019-03-25T14:41:34.592Z,94214.17
2019-03-25T14:44:01.332Z,94207.14
2019-03-25T14:46:28.014Z,94210.74
2019-03-25T14:48:54.709Z,94206.45
2019-03-25T14:51:21.466Z,94204.14
2019-03-25T14:53:48.112Z,94201.91
2019-03-25T14:56:14.835Z,94204.22
2019-03-25T14:58:41.473Z,94202.81
2019-03-25T15:01:08.158Z,94209.61
2019-03-25T15:03:34.811Z,94200.98
2019-03-25T15:06:01.481Z,94204.14
2019-03-25T15:08:28.221Z,94199.38
2019-03-25T15:10:54.861Z,94204.41
2019-03-25T15:13:21.547Z,94200.42
2019-03-25T15:15:48.235Z,94207.00
2019-03-25T15:18:15.755Z,94206.44
2019-03-25T15:20:41.581Z,94196.69
2019-03-25T15:23:08.366Z,94200.79
2019-03-25T15:25:35.020Z,94198.00
2019-03-25T15:28:01.687Z,94194.08
2019-03-25T15:30:35.895Z,94201.80
2019-03-25T15:32:55.021Z,94201.14
2019-03-25T15:35:21.660Z,94200.94
2019-03-25T15:37:48.323Z,94198.16
2019-03-25T15:40:15.080Z,94191.30
2019-03-25T15:42:41.673Z,94192.94
2019-03-25T15:45:08.342Z,94198.23
2019-03-25T15:47:35.104Z,94191.47
2019-03-25T15:50:01.632Z,94194.05
2019-03-25T15:52:28.279Z,94190.44
2019-03-25T15:54:54.933Z,94186.05
2019-03-25T15:57:21.595Z,94187.54
2019-03-25T15:59:48.261Z,94179.73
2019-03-25T16:02:15.009Z,94188.08
2019-03-25T16:04:41.651Z,94172.66
2019-03-25T16:07:08.313Z,94183.79
2019-03-25T16:09:34.961Z,94174.79
2019-03-25T16:12:01.614Z,94182.67
2019-03-25T16:14:28.251Z,94177.16
2019-03-25T16:16:54.900Z,94179.34
2019-03-25T16:19:21.532Z,94182.99
2019-03-25T16:21:48.186Z,94174.05
2019-03-25T16:24:14.821Z,94178.02
2019-03-25T16:26:41.454Z,94180.13
2019-03-25T16:29:08.104Z,94180.78
2019-03-25T16:31:34.748Z,94180.13
2019-03-25T16:34:01.387Z,94177.79
2019-03-25T16:36:28.034Z,94183.28
2019-03-25T16:38:54.683Z,94182.07
2019-03-25T16:41:21.316Z,94184.47
2019-03-25T16:43:47.976Z,94189.75
2019-03-25T16:46:14.626Z,94200.77
2019-03-25T16:48:41.285Z,94194.83
2019-03-25T16:51:07.924Z,94200.22
2019-03-25T16:53:34.576Z,94201.50
2019-03-25T16:56:01.236Z,94194.17
2019-03-25T16:58:27.884Z,94192.59
2019-03-25T17:00:54.539Z,94197.41
2019-03-25T17:03:21.224Z,94189.23
2019-03-25T17:05:47.931Z,94188.30
2019-03-25T17:08:14.578Z,94192.10
2019-03-25T17:10:41.278Z,94195.91
2019-03-25T17:13:07.926Z,94194.59
2019-03-25T17:15:34.589Z,94201.16
2019-03-25T17:18:01.234Z,94209.05
2019-03-25T17:20:27.880Z,94218.94
2019-03-25T17:22:54.528Z,94224.27
2019-03-25T17:25:21.216Z,94226.28
2019-03-25T17:27:47.857Z,94230.70
2019-03-25T17:30:14.507Z,94235.86
2019-03-25T17:32:41.200Z,94232.66
2019-03-25T17:35:07.840Z,94235.97
2019-03-25T17:37:34.475Z,94235.70
2019-03-25T17:40:01.152Z,94237.51
2019-03-25T17:42:27.789Z,94234.87
2019-03-25T17:44:54.433Z,94235.58
2019-03-25T17:47:21.076Z,94238.27
2019-03-25T17:49:47.728Z,94235.39
2019-03-25T17:52:14.368Z,94237.88
2019-03-25T17:54:41.114Z,94236.11
2019-03-25T17:57:07.799Z,94238.78
2019-03-25T17:59:34.480Z,94245.63
2019-03-25T18:02:01.134Z,94240.16
2019-03-25T18:04:31.005Z,94248.05
2019-03-25T18:06:57.656Z,94243.50
2019-03-25T18:09:24.309Z,94244.64
2019-03-25T18:11:50.955Z,94247.69
2019-03-25T18:14:17.686Z,94246.59
2019-03-25T18:16:44.333Z,94242.21
2019-03-25T18:19:10.977Z,94247.13
2019-03-25T18:21:37.613Z,94244.35
2019-03-25T18:24:04.275Z,94244.81
2019-03-25T18:26:30.905Z,94243.77
2019-03-25T18:28:57.546Z,94246.70
2019-03-25T18:31:24.191Z,94247.42
2019-03-25T18:33:50.832Z,94245.74
2019-03-25T18:36:17.470Z,94256.63
2019-03-25T18:38:44.105Z,94259.77
2019-03-25T18:41:10.782Z,94262.26
2019-03-25T18:43:37.429Z,94263.03
2019-03-25T18:46:04.183Z,94266.64
2019-03-25T18:48:30.837Z,94249.88
2019-03-25T18:50:57.469Z,94256.32
2019-03-25T18:53:24.127Z,94251.48
2019-03-25T18:55:50.785Z,94254.60
2019-03-25T18:58:17.420Z,94257.48
2019-03-25T19:00:44.065Z,94249.61
2019-03-25T19:03:10.713Z,94245.56
2019-03-25T19:05:37.361Z,94255.51
2019-03-25T19:08:04.024Z,94258.73
2019-03-25T19:10:30.661Z,94253.26
2019-03-25T19:12:57.310Z,94253.45
2019-03-25T19:15:23.958Z,94254.58
2019-03-25T19:17:50.612Z,94253.71
2019-03-25T19:20:17.243Z,94258.03
2019-03-25T19:22:43.909Z,94253.19
2019-03-25T19:25:10.563Z,94252.73
2019-03-25T19:27:37.207Z,94257.58
2019-03-25T19:30:03.858Z,94254.66
2019-03-25T19:32:30.505Z,94254.89
2019-03-25T19:34:57.161Z,94245.17
2019-03-25T19:37:23.812Z,94248.99
2019-03-25T19:39:50.446Z,94246.11
2019-03-25T19:42:17.086Z,94252.04
2019-03-25T19:44:43.729Z,94256.63
2019-03-25T19:47:10.390Z,94253.58
2019-03-25T19:49:37.050Z,94247.91
2019-03-25T19:52:03.720Z,94256.44
2019-03-25T19:54:30.405Z,94260.78
2019-03-25T19:56:57.032Z,94258.46
2019-03-25T19:59:23.748Z,94263.83
2019-03-25T20:01:50.349Z,94265.71
2019-03-25T20:04:16.988Z,94267.69
2019-03-25T20:06:43.657Z,94264.50
2019-03-25T20:09:10.303Z,94264.77
2019-03-25T20:11:36.966Z,94266.27
2019-03-25T20:14:03.659Z,94271.14
2019-03-25T20:16:30.302Z,94263.91
2019-03-25T20:18:56.949Z,94271.83
2019-03-25T20:21:23.626Z,94273.03
2019-03-25T20:23:50.711Z,94274.05
2019-03-25T20:26:16.995Z,94272.58
2019-03-25T20:28:43.700Z,94271.34
2019-03-25T20:31:10.307Z,94269.05
2019-03-25T20:33:37.230Z,94265.48
2019-03-25T20:36:03.824Z,94270.41
2019-03-25T20:38:30.455Z,94275.95
2019-03-25T20:40:57.111Z,94263.23
2019-03-25T20:43:23.805Z,94275.47
2019-03-25T20:45:50.452Z,94268.23
2019-03-25T20:48:17.116Z,94270.78
2019-03-25T20:50:45.163Z,94269.84
2019-03-25T20:53:10.339Z,94266.42
2019-03-25T20:55:37.063Z,94268.72
2019-03-25T20:58:03.782Z,94271.60
2019-03-25T21:00:30.517Z,94272.80
2019-03-25T21:02:57.159Z,94264.63
2019-03-25T21:05:23.784Z,94268.03
2019-03-25T21:07:50.456Z,94270.02
2019-03-25T21:10:17.095Z,94267.73
2019-03-25T21:12:43.776Z,94269.76
2019-03-25T21:15:10.487Z,94275.75
2019-03-25T21:17:37.131Z,94275.64
2019-03-25T21:20:03.706Z,94285.43
2019-03-25T21:22:30.384Z,94278.75
2019-03-25T21:24:57.019Z,94276.91
2019-03-25T21:27:23.717Z,94281.93
2019-03-25T21:29:50.307Z,94282.79
2019-03-25T21:32:17.053Z,94286.62
2019-03-25T21:34:43.694Z,94290.73
2019-03-25T21:37:10.253Z,94287.66
2019-03-25T21:39:36.885Z,94286.95
2019-03-25T21:42:03.551Z,94280.30
2019-03-25T21:44:30.242Z,94281.58
2019-03-25T21:46:56.911Z,94271.38
2019-03-25T21:49:23.568Z,94276.29
2019-03-25T21:51:50.202Z,94273.14
2019-03-25T21:54:16.838Z,94278.87
2019-03-25T21:56:43.498Z,94277.44
2019-03-25T21:59:10.132Z,94275.04
2019-03-25T22:01:36.760Z,94275.30
2019-03-25T22:04:03.391Z,94275.94
2019-03-25T22:06:30.076Z,94277.66
2019-03-25T22:08:56.717Z,94280.98
2019-03-25T22:11:23.355Z,94278.73
2019-03-25T22:13:49.991Z,94288.70
2019-03-25T22:16:16.649Z,94299.91
2019-03-25T22:18:43.315Z,94302.80
2019-03-25T22:21:09.950Z,94302.13
2019-03-25T22:23:36.590Z,94300.29
2019-03-25T22:26:03.236Z,94301.26
2019-03-25T22:28:29.882Z,94300.02
2019-03-25T22:30:56.516Z,94299.63
2019-03-25T22:33:25.959Z,94293.84
2019-03-25T22:35:49.795Z,94293.33
2019-03-25T22:38:16.489Z,94297.63
2019-03-25T22:40:43.124Z,94293.73
2019-03-25T22:43:09.816Z,94290.65
2019-03-25T22:45:36.515Z,94295.07
2019-03-25T22:48:03.159Z,94296.05
2019-03-25T22:50:29.812Z,94298.77
2019-03-25T22:52:56.462Z,94299.03
2019-03-25T22:55:23.539Z,94298.52
2019-03-25T22:57:49.794Z,94297.31
2019-03-25T23:00:16.436Z,94304.50
2019-03-25T23:02:43.104Z,94314.96
2019-03-25T23:05:09.738Z,94317.53
2019-03-25T23:07:36.379Z,94311.76
2019-03-25T23:10:03.033Z,94317.11
2019-03-25T23:12:29.716Z,94315.98
2019-03-25T23:14:56.360Z,94317.20
2019-03-25T23:17:23.004Z,94319.91
2019-03-25T23:19:49.644Z,94322.00
2019-03-25T23:22:16.281Z,94316.36
2019-03-25T23:24:42.926Z,94318.13
2019-03-25T23:27:09.567Z,94315.13
2019-03-25T23:29:36.204Z,94317.46
2019-03-25T23:32:02.859Z,94316.05
2019-03-25T23:34:29.504Z,94322.49
2019-03-25T23:36:56.164Z,94322.23
2019-03-25T23:39:25.070Z,94322.98
2019-03-25T23:41:49.449Z,94312.99
2019-03-25T23:44:16.104Z,94316.03
2019-03-25T23:46:42.754Z,94322.01
2019-03-25T23:49:09.446Z,94319.47
2019-03-25T23:51:36.082Z,94317.36
2019-03-25T23:54:02.831Z,94327.23
2019-03-25T23:56:29.479Z,94326.97
2019-03-25T23:58:56.161Z,94331.91
